createdAt,value
2024-03-05T00:02:16.089Z,66.17
2024-03-05T00:04:45.310Z,66.01
2024-03-05T00:07:12.169Z,66.44
2024-03-05T00:09:39.781Z,66.90
2024-03-05T00:12:06.741Z,66.66
2024-03-05T00:14:33.640Z,66.66
2024-03-05T00:17:02.136Z,66.26
2024-03-05T00:19:30.427Z,66.97
2024-03-05T00:21:57.178Z,66.67
2024-03-05T00:24:48.989Z,66.87
2024-03-05T00:27:15.848Z,67.13
2024-03-05T00:32:37.881Z,66.92
2024-03-05T00:35:07.171Z,67.07
2024-03-05T00:37:40.257Z,67.12
2024-03-05T00:40:10.261Z,67.46
2024-03-05T00:42:39.101Z,67.49
2024-03-05T00:45:31.141Z,68.13
2024-03-05T00:47:58.244Z,67.78
2024-03-05T00:50:25.132Z,67.74
2024-03-05T00:52:52.044Z,68.21
2024-03-05T00:55:19.060Z,68.07
2024-03-05T00:57:46.733Z,67.62
2024-03-05T01:00:14.737Z,67.64
2024-03-05T01:02:42.744Z,68.29
2024-03-05T01:05:10.256Z,68.31
2024-03-05T01:07:41.116Z,68.33
2024-03-05T01:10:09.585Z,68.33
2024-03-05T01:12:37.166Z,68.05
2024-03-05T01:15:06.035Z,68.30
2024-03-05T01:17:34.068Z,68.51
2024-03-05T01:20:01.082Z,68.53
2024-03-05T01:22:28.053Z,68.64
2024-03-05T01:24:54.971Z,68.39
2024-03-05T01:27:21.807Z,68.68
2024-03-05T01:29:49.386Z,68.45
2024-03-05T01:32:16.325Z,68.52
2024-03-05T01:34:43.805Z,68.57
2024-03-05T01:37:12.021Z,68.85
2024-03-05T01:39:39.118Z,69.06
2024-03-05T01:42:07.595Z,69.05
2024-03-05T01:44:34.915Z,68.78
2024-03-05T01:47:03.554Z,68.96
2024-03-05T01:49:31.274Z,69.42
2024-03-05T01:52:01.150Z,69.45
2024-03-05T01:54:29.120Z,69.77
2024-03-05T01:57:01.553Z,69.42
2024-03-05T01:59:28.827Z,69.44
2024-03-05T02:01:56.032Z,69.50
2024-03-05T02:04:25.564Z,69.76
2024-03-05T02:06:54.777Z,69.89
2024-03-05T02:09:25.274Z,69.93
2024-03-05T02:11:59.157Z,69.74
2024-03-05T02:14:28.164Z,70.20
2024-03-05T02:16:59.949Z,69.85
2024-03-05T02:19:27.848Z,69.82
2024-03-05T02:22:03.508Z,69.95
2024-03-05T02:24:31.654Z,70.25
2024-03-05T02:27:01.914Z,69.87
2024-03-05T02:29:35.100Z,69.83
2024-03-05T02:32:02.169Z,69.99
2024-03-05T02:34:29.110Z,69.91
2024-03-05T02:36:56.064Z,69.64
2024-03-05T02:39:22.864Z,70.04
2024-03-05T02:41:50.160Z,70.33
2024-03-05T02:44:16.980Z,70.21
2024-03-05T02:46:44.615Z,70.37
2024-03-05T02:49:13.162Z,70.08
2024-03-05T02:51:40.481Z,70.19
2024-03-05T02:54:07.349Z,70.32
2024-03-05T02:56:34.169Z,70.16
2024-03-05T02:59:01.100Z,70.03
2024-03-05T03:01:28.785Z,70.17
2024-03-05T03:03:55.643Z,69.92
2024-03-05T03:06:22.575Z,70.47
2024-03-05T03:08:49.445Z,70.83
2024-03-05T03:11:17.302Z,71.05
2024-03-05T03:13:45.800Z,71.04
2024-03-05T03:16:12.771Z,70.92
2024-03-05T03:18:40.203Z,71.01
2024-03-05T03:21:06.963Z,70.84
2024-03-05T03:23:35.154Z,71.18
2024-03-05T03:26:02.166Z,71.10
2024-03-05T03:28:29.099Z,71.50
2024-03-05T03:30:56.180Z,71.59
2024-03-05T03:33:23.653Z,71.31
2024-03-05T03:35:51.134Z,71.46
2024-03-05T03:38:18.608Z,71.70
2024-03-05T03:40:45.368Z,71.51
2024-03-05T03:43:12.375Z,71.39
2024-03-05T03:45:39.143Z,71.76
2024-03-05T03:48:06.661Z,71.70
2024-03-05T03:50:34.221Z,71.76
2024-03-05T03:53:01.669Z,72.12
2024-03-05T03:55:29.621Z,71.71
2024-03-05T03:57:58.116Z,71.97
2024-03-05T04:00:24.922Z,72.03
2024-03-05T04:02:51.806Z,71.85
2024-03-05T04:05:18.929Z,72.10
2024-03-05T04:07:46.846Z,71.96
2024-03-05T04:10:14.956Z,71.91
2024-03-05T04:12:42.766Z,71.78
2024-03-05T04:15:10.061Z,71.84
2024-03-05T04:17:37.299Z,71.72
2024-03-05T04:20:05.207Z,71.90
2024-03-05T04:22:32.834Z,72.61
2024-03-05T04:25:00.132Z,72.72
2024-03-05T04:27:29.520Z,72.60
2024-03-05T04:29:59.952Z,72.50
2024-03-05T04:32:27.152Z,72.30
2024-03-05T04:34:55.157Z,72.34
2024-03-05T04:37:22.892Z,72.25
2024-03-05T04:39:49.799Z,72.78
2024-03-05T04:42:18.011Z,72.82
2024-03-05T04:44:45.061Z,72.84
2024-03-05T04:47:12.174Z,73.06
2024-03-05T04:49:39.377Z,72.52
2024-03-05T04:52:06.978Z,72.77
2024-03-05T04:54:34.271Z,73.17
2024-03-05T04:57:01.828Z,72.98
2024-03-05T04:59:29.572Z,73.70
2024-03-05T05:01:56.571Z,73.53
2024-03-05T05:04:30.429Z,73.28
2024-03-05T05:06:57.838Z,73.20
2024-03-05T05:09:24.796Z,73.30
2024-03-05T05:11:51.912Z,73.52
2024-03-05T05:14:18.795Z,73.28
2024-03-05T05:16:47.103Z,73.80
2024-03-05T05:19:14.117Z,73.91
2024-03-05T05:21:45.279Z,73.91
2024-03-05T05:24:13.190Z,73.73
2024-03-05T05:26:41.306Z,73.77
2024-03-05T05:29:14.107Z,74.06
2024-03-05T05:31:45.694Z,74.18
2024-03-05T05:34:12.569Z,73.96
2024-03-05T05:37:06.436Z,73.90
2024-03-05T05:39:34.831Z,73.65
2024-03-05T05:42:02.108Z,73.77
2024-03-05T05:44:29.093Z,73.97
2024-03-05T05:46:56.164Z,73.61
2024-03-05T05:49:25.021Z,73.54
2024-03-05T05:51:52.109Z,73.82
2024-03-05T05:54:22.607Z,74.32
2024-03-05T05:56:50.597Z,73.93
2024-03-05T05:59:17.860Z,74.36
2024-03-05T06:01:45.515Z,74.24
2024-03-05T06:04:12.977Z,73.82
2024-03-05T06:06:40.116Z,73.98
2024-03-05T06:09:09.380Z,73.94
2024-03-05T06:11:39.866Z,73.92
2024-03-05T06:14:08.377Z,74.04
2024-03-05T06:16:36.436Z,73.69
2024-03-05T06:19:03.406Z,73.36
2024-03-05T06:21:31.572Z,73.32
2024-03-05T06:23:58.449Z,73.17
2024-03-05T06:26:25.381Z,73.44
2024-03-05T06:28:52.628Z,73.30
2024-03-05T06:31:19.946Z,72.54
2024-03-05T06:33:46.848Z,72.08
2024-03-05T06:36:14.081Z,71.98
2024-03-05T06:38:41.155Z,72.02
2024-03-05T06:41:11.625Z,71.44
2024-03-05T06:43:39.200Z,70.76
2024-03-05T06:46:06.487Z,70.74
2024-03-05T06:48:33.445Z,70.25
2024-03-05T06:51:01.027Z,70.67
2024-03-05T06:53:29.473Z,70.27
2024-03-05T06:55:56.965Z,70.27
2024-03-05T06:58:25.000Z,69.90
2024-03-05T07:00:52.029Z,69.66
2024-03-05T07:03:19.164Z,69.46
2024-03-05T07:05:47.017Z,69.86
2024-03-05T07:08:14.041Z,70.05
2024-03-05T07:10:41.070Z,70.03
2024-03-05T07:13:08.382Z,70.34
2024-03-05T07:15:35.255Z,70.51
2024-03-05T07:18:03.515Z,70.71
2024-03-05T07:20:30.489Z,70.24
2024-03-05T07:22:57.737Z,70.04
2024-03-05T07:25:24.986Z,69.94
2024-03-05T07:27:51.992Z,70.17
2024-03-05T07:30:20.358Z,70.17
2024-03-05T07:32:49.025Z,70.36
2024-03-05T07:35:17.077Z,70.38
2024-03-05T07:37:45.469Z,70.65
2024-03-05T07:40:15.939Z,70.46
2024-03-05T07:42:46.937Z,70.40
2024-03-05T07:45:14.151Z,70.23
2024-03-05T07:47:41.378Z,70.57
2024-03-05T07:50:09.230Z,70.84
2024-03-05T07:52:36.300Z,70.57
2024-03-05T07:55:03.552Z,70.87
2024-03-05T07:57:30.560Z,70.58
2024-03-05T07:59:57.443Z,70.33
2024-03-05T08:02:27.271Z,69.61
2024-03-05T08:04:55.060Z,69.48
2024-03-05T08:10:16.684Z,69.15
2024-03-05T08:12:48.219Z,68.48
2024-03-05T08:15:17.130Z,68.38
2024-03-05T08:17:46.866Z,67.82
2024-03-05T08:23:09.666Z,66.84
2024-03-05T08:25:36.661Z,66.68
2024-03-05T08:28:03.719Z,66.25
2024-03-05T08:30:31.663Z,66.30
2024-03-05T08:33:00.161Z,65.83
2024-03-05T08:35:27.527Z,66.14
2024-03-05T08:37:55.116Z,66.26
2024-03-05T08:40:22.626Z,66.95
2024-03-05T08:42:51.370Z,65.67
2024-03-05T08:45:20.258Z,65.87
2024-03-05T08:47:52.597Z,65.32
2024-03-05T08:50:20.665Z,64.57
2024-03-05T08:52:47.992Z,63.66
2024-03-05T08:55:19.549Z,64.07
2024-03-05T08:57:48.822Z,64.60
2024-03-05T09:00:27.749Z,63.52
2024-03-05T09:03:04.305Z,63.09
2024-03-05T09:05:31.328Z,61.63
2024-03-05T09:07:58.376Z,61.64
2024-03-05T09:10:26.135Z,61.73
2024-03-05T09:12:53.020Z,61.44
2024-03-05T09:15:21.038Z,61.94
2024-03-05T09:17:48.056Z,62.21
2024-03-05T09:20:15.194Z,60.67
2024-03-05T09:22:47.204Z,61.12
2024-03-05T09:25:16.135Z,60.47
2024-03-05T09:27:44.152Z,60.16
2024-03-05T09:30:11.658Z,60.24
2024-03-05T09:32:39.094Z,61.25
2024-03-05T09:35:06.187Z,61.12
2024-03-05T09:37:34.102Z,60.31
2024-03-05T09:40:01.299Z,60.49
2024-03-05T09:42:28.244Z,60.58
2024-03-05T09:44:55.390Z,60.17
2024-03-05T09:47:23.813Z,60.41
2024-03-05T09:49:51.998Z,61.00
2024-03-05T09:52:19.555Z,60.68
2024-03-05T09:54:46.658Z,60.34
2024-03-05T09:57:13.721Z,60.58
2024-03-05T09:59:42.165Z,60.09
2024-03-05T10:02:12.139Z,60.51
2024-03-05T10:04:42.356Z,59.88
2024-03-05T10:07:10.024Z,60.23
2024-03-05T10:09:36.955Z,59.81
2024-03-05T10:12:05.658Z,60.15
2024-03-05T10:14:32.616Z,59.64
2024-03-05T10:17:00.992Z,60.08
2024-03-05T10:19:28.125Z,59.19
2024-03-05T10:22:08.849Z,60.04
2024-03-05T10:24:37.815Z,60.53
2024-03-05T10:27:05.038Z,60.60
2024-03-05T10:29:36.199Z,59.86
2024-03-05T10:32:06.735Z,59.39
2024-03-05T10:34:33.926Z,60.65
2024-03-05T10:37:05.314Z,60.46
2024-03-05T10:39:34.246Z,60.77
2024-03-05T10:42:01.328Z,59.58
2024-03-05T10:44:30.620Z,58.95
2024-03-05T10:46:57.752Z,58.46
2024-03-05T10:49:25.839Z,58.90
2024-03-05T10:51:55.022Z,58.93
2024-03-05T10:54:22.636Z,58.69
2024-03-05T10:56:50.737Z,59.20
2024-03-05T10:59:18.268Z,58.68
2024-03-05T11:01:46.374Z,57.76
2024-03-05T11:04:21.931Z,58.55
2024-03-05T11:06:52.589Z,57.81
2024-03-05T11:09:21.017Z,58.30
2024-03-05T11:11:54.017Z,57.33
2024-03-05T11:14:21.395Z,57.38
2024-03-05T11:16:56.628Z,58.05
2024-03-05T11:19:23.785Z,58.59
2024-03-05T11:21:51.253Z,57.87
2024-03-05T11:24:18.139Z,58.90
2024-03-05T11:26:45.841Z,58.21
2024-03-05T11:29:18.739Z,57.27
2024-03-05T11:31:49.517Z,57.40
2024-03-05T11:34:18.259Z,58.41
2024-03-05T11:36:46.279Z,57.31
2024-03-05T11:39:14.608Z,57.82
2024-03-05T11:41:50.829Z,56.24
2024-03-05T11:44:32.985Z,56.62
2024-03-05T11:47:01.812Z,56.71
2024-03-05T11:49:28.766Z,56.35
2024-03-05T11:51:55.740Z,56.23
2024-03-05T11:54:25.302Z,56.82
2024-03-05T11:57:01.712Z,55.02
2024-03-05T11:59:42.001Z,56.21
2024-03-05T12:02:10.487Z,55.29
2024-03-05T12:04:43.322Z,57.29
2024-03-05T12:07:14.991Z,56.84
2024-03-05T12:09:42.343Z,56.04
2024-03-05T12:12:11.574Z,55.57
2024-03-05T12:14:39.466Z,54.85
2024-03-05T12:17:07.704Z,53.62
2024-03-05T12:19:35.271Z,53.89
2024-03-05T12:22:02.347Z,54.46
2024-03-05T12:24:31.550Z,54.42
2024-03-05T12:26:59.842Z,54.58
2024-03-05T12:29:34.972Z,54.54
2024-03-05T12:32:07.775Z,55.21
2024-03-05T12:34:36.694Z,55.65
2024-03-05T12:37:06.615Z,55.42
2024-03-05T12:39:33.511Z,55.26
2024-03-05T12:42:03.743Z,54.93
2024-03-05T12:44:32.001Z,56.79
2024-03-05T12:50:13.133Z,56.28
2024-03-05T12:52:41.824Z,56.19
2024-03-05T12:55:14.080Z,55.99
2024-03-05T12:57:49.293Z,55.87
2024-03-05T13:00:16.722Z,55.53
2024-03-05T13:02:43.816Z,55.13
2024-03-05T13:05:11.273Z,53.73
2024-03-05T13:07:40.027Z,53.39
2024-03-05T13:10:10.178Z,54.64
2024-03-05T13:12:38.056Z,55.16
2024-03-05T13:15:29.822Z,55.67
2024-03-05T13:18:02.889Z,53.81
2024-03-05T13:20:29.865Z,55.22
2024-03-05T13:22:57.037Z,54.97
2024-03-05T13:25:25.290Z,54.48
2024-03-05T13:27:53.490Z,54.34
2024-03-05T13:30:21.054Z,54.77
2024-03-05T13:32:49.999Z,54.32
2024-03-05T13:35:18.487Z,53.74
2024-03-05T13:37:46.491Z,54.42
2024-03-05T13:40:15.838Z,53.63
2024-03-05T13:42:42.732Z,53.74
2024-03-05T13:45:10.843Z,53.59
2024-03-05T13:47:38.156Z,53.43
2024-03-05T13:50:13.947Z,52.95
2024-03-05T13:52:43.606Z,52.85
2024-03-05T13:58:05.227Z,53.00
2024-03-05T14:00:32.127Z,53.45
2024-03-05T14:03:00.809Z,53.64
2024-03-05T14:05:27.716Z,54.18
2024-03-05T14:07:55.699Z,53.80
2024-03-05T14:10:22.685Z,53.93
2024-03-05T14:12:49.855Z,54.51
2024-03-05T14:15:16.887Z,54.11
2024-03-05T14:17:44.162Z,54.41
2024-03-05T14:20:11.866Z,54.86
2024-03-05T14:22:42.529Z,54.45
2024-03-05T14:25:11.072Z,54.87
2024-03-05T14:27:37.969Z,55.04
2024-03-05T14:30:05.949Z,55.15
2024-03-05T14:32:32.822Z,55.13
2024-03-05T14:35:01.948Z,55.22
2024-03-05T14:37:28.934Z,55.57
2024-03-05T14:39:59.713Z,55.84
2024-03-05T14:42:26.868Z,56.01
2024-03-05T14:44:53.784Z,56.52
2024-03-05T14:47:20.971Z,56.35
2024-03-05T14:49:48.039Z,56.31
2024-03-05T14:52:15.039Z,56.69
2024-03-05T14:54:42.484Z,56.64
2024-03-05T14:57:09.449Z,56.99
2024-03-05T14:59:36.390Z,56.59
2024-03-05T15:02:03.421Z,56.76
2024-03-05T15:04:30.432Z,57.35
2024-03-05T15:06:57.399Z,57.71
2024-03-05T15:09:24.267Z,57.94
2024-03-05T15:11:51.393Z,58.77
2024-03-05T15:14:18.532Z,57.68
2024-03-05T15:16:45.712Z,57.94
2024-03-05T15:19:13.355Z,57.05
2024-03-05T15:21:40.239Z,57.31
2024-03-05T15:24:07.878Z,57.07
2024-03-05T15:26:34.945Z,57.70
2024-03-05T15:29:01.973Z,57.36
2024-03-05T15:31:29.087Z,57.98
2024-03-05T15:33:56.909Z,57.75
2024-03-05T15:36:23.863Z,57.86
2024-03-05T15:38:50.870Z,58.13
2024-03-05T15:41:17.779Z,58.07
2024-03-05T15:43:45.010Z,58.80
2024-03-05T15:46:11.888Z,58.96
2024-03-05T15:48:39.008Z,59.08
2024-03-05T15:51:06.028Z,59.24
2024-03-05T15:53:33.666Z,59.55
2024-03-05T15:56:00.670Z,60.43
2024-03-05T15:58:31.152Z,60.93
2024-03-05T16:00:58.261Z,61.61
2024-03-05T16:03:25.194Z,62.01
2024-03-05T16:06:00.342Z,62.33
2024-03-05T16:08:33.200Z,62.78
2024-03-05T16:11:00.762Z,63.52
2024-03-05T16:13:29.311Z,63.20
2024-03-05T16:15:57.089Z,63.05
2024-03-05T16:18:24.100Z,63.55
2024-03-05T16:20:51.139Z,63.68
2024-03-05T16:23:17.982Z,64.24
2024-03-05T16:25:45.953Z,63.84
2024-03-05T16:28:12.949Z,64.28
2024-03-05T16:30:39.934Z,64.03
2024-03-05T16:33:07.580Z,63.69
2024-03-05T16:35:34.774Z,64.40
2024-03-05T16:38:03.319Z,64.36
2024-03-05T16:40:30.526Z,64.50
2024-03-05T16:43:00.787Z,64.56
2024-03-05T16:45:28.883Z,65.65
2024-03-05T16:47:59.693Z,65.61
2024-03-05T16:50:28.339Z,65.97
2024-03-05T16:52:57.986Z,66.32
2024-03-05T16:55:26.033Z,66.58
2024-03-05T16:57:54.534Z,66.83
2024-03-05T17:00:47.130Z,67.54
2024-03-05T17:03:14.385Z,67.10
2024-03-05T17:05:42.884Z,67.47
2024-03-05T17:08:09.845Z,67.66
2024-03-05T17:10:37.421Z,68.06
2024-03-05T17:13:34.644Z,68.14
2024-03-05T17:16:01.953Z,67.62
2024-03-05T17:18:29.188Z,67.30
2024-03-05T17:20:56.634Z,68.08
2024-03-05T17:23:26.242Z,68.25
2024-03-05T17:25:55.011Z,68.40
2024-03-05T17:28:21.982Z,68.67
2024-03-05T17:30:50.022Z,68.98
2024-03-05T17:33:17.670Z,68.91
2024-03-05T17:35:53.411Z,68.96
2024-03-05T17:38:20.305Z,68.63
2024-03-05T17:40:47.391Z,68.69
2024-03-05T17:43:14.186Z,68.89
2024-03-05T17:45:42.316Z,68.99
2024-03-05T17:48:09.545Z,69.58
2024-03-05T17:50:37.065Z,69.37
2024-03-05T17:53:07.464Z,69.60
2024-03-05T17:55:34.644Z,69.94
2024-03-05T17:58:03.336Z,70.05
2024-03-05T18:00:31.018Z,69.93
2024-03-05T18:03:00.118Z,70.27
2024-03-05T18:05:27.658Z,71.05
2024-03-05T18:07:56.217Z,70.77
2024-03-05T18:10:24.787Z,70.81
2024-03-05T18:12:54.316Z,71.18
2024-03-05T18:15:21.988Z,71.82
2024-03-05T18:17:50.876Z,71.73
2024-03-05T18:20:22.192Z,71.44
2024-03-05T18:22:50.550Z,71.05
2024-03-05T18:25:18.470Z,70.69
2024-03-05T18:27:50.358Z,70.83
2024-03-05T18:30:18.020Z,71.10
2024-03-05T18:32:47.086Z,70.84
2024-03-05T18:35:15.230Z,71.09
2024-03-05T18:37:42.458Z,71.18
2024-03-05T18:40:10.146Z,71.00
2024-03-05T18:42:38.086Z,71.10
2024-03-05T18:45:05.977Z,71.05
2024-03-05T18:47:33.369Z,71.43
2024-03-05T18:50:01.635Z,71.58
2024-03-05T18:52:29.050Z,71.37
2024-03-05T18:54:55.995Z,71.69
2024-03-05T18:57:24.355Z,72.03
2024-03-05T18:59:51.208Z,72.04
2024-03-05T19:02:18.048Z,71.72
2024-03-05T19:04:45.447Z,71.79
2024-03-05T19:07:12.742Z,71.91
2024-03-05T19:10:06.024Z,71.13
2024-03-05T19:12:36.421Z,70.80
2024-03-05T19:15:04.568Z,70.60
2024-03-05T19:17:37.931Z,70.65
2024-03-05T19:20:05.958Z,70.58
2024-03-05T19:22:33.167Z,70.68
2024-03-05T19:25:00.477Z,70.89
2024-03-05T19:27:28.366Z,71.02
2024-03-05T19:29:57.021Z,71.39
2024-03-05T19:32:24.153Z,71.41
2024-03-05T19:34:51.260Z,71.54
2024-03-05T19:37:20.482Z,71.45
2024-03-05T19:39:47.922Z,71.63
2024-03-05T19:42:14.912Z,71.59
2024-03-05T19:44:41.797Z,71.72
2024-03-05T19:47:09.128Z,71.62
2024-03-05T19:49:37.305Z,72.10
2024-03-05T19:52:04.576Z,71.96
2024-03-05T19:54:32.397Z,71.93
2024-03-05T19:56:59.814Z,71.71
2024-03-05T19:59:26.853Z,71.64
2024-03-05T20:02:20.005Z,71.41
2024-03-05T20:04:51.027Z,71.38
2024-03-05T20:07:17.958Z,71.26
2024-03-05T20:09:47.493Z,71.43
2024-03-05T20:12:16.467Z,71.40
2024-03-05T20:14:47.079Z,71.42
2024-03-05T20:17:14.812Z,71.52
2024-03-05T20:19:42.762Z,71.74
2024-03-05T20:22:09.743Z,71.86
2024-03-05T20:24:37.888Z,71.96
2024-03-05T20:27:05.664Z,71.93
2024-03-05T20:29:34.120Z,72.17
2024-03-05T20:34:55.354Z,72.69
2024-03-05T20:37:23.422Z,72.51
2024-03-05T20:39:52.579Z,72.85
2024-03-05T20:42:21.742Z,72.92
2024-03-05T20:44:51.950Z,72.64
2024-03-05T20:47:20.229Z,73.09
2024-03-05T20:49:47.643Z,73.26
2024-03-05T20:52:14.961Z,73.22
2024-03-05T20:54:43.477Z,73.41
2024-03-05T20:57:11.027Z,73.56
2024-03-05T20:59:39.214Z,73.75
2024-03-05T21:02:06.730Z,73.86
2024-03-05T21:04:34.231Z,74.12
2024-03-05T21:09:53.197Z,74.31
2024-03-05T21:12:20.959Z,74.23
2024-03-05T21:14:48.296Z,74.66
2024-03-05T21:17:16.055Z,75.00
2024-03-05T21:19:42.901Z,75.10
2024-03-05T21:22:10.124Z,75.03
2024-03-05T21:24:37.470Z,75.17
2024-03-05T21:27:16.649Z,75.23
2024-03-05T21:29:48.616Z,75.41
2024-03-05T21:32:15.686Z,75.50
2024-03-05T21:34:43.626Z,75.82
2024-03-05T21:37:12.167Z,76.01
2024-03-05T21:39:38.901Z,76.37
2024-03-05T21:42:06.509Z,76.36
2024-03-05T21:44:41.330Z,76.73
2024-03-05T21:47:09.841Z,76.79
2024-03-05T21:49:36.742Z,77.05
2024-03-05T21:52:03.661Z,77.44
2024-03-05T21:54:30.603Z,77.50
2024-03-05T21:56:58.195Z,77.66
2024-03-05T21:59:25.138Z,77.44
2024-03-05T22:01:52.147Z,76.93
2024-03-05T22:04:19.219Z,77.18
2024-03-05T22:06:47.371Z,76.64
2024-03-05T22:09:14.528Z,77.32
2024-03-05T22:11:45.167Z,77.86
2024-03-05T22:14:12.453Z,78.57
2024-03-05T22:17:04.531Z,78.58
2024-03-05T22:19:31.581Z,79.26
2024-03-05T22:21:58.303Z,79.46
2024-03-05T22:24:27.209Z,79.87
2024-03-05T22:26:54.041Z,80.15
2024-03-05T22:29:20.863Z,80.52
2024-03-05T22:31:52.423Z,80.59
2024-03-05T22:34:19.198Z,80.53
2024-03-05T22:36:47.603Z,81.17
2024-03-05T22:39:15.324Z,81.15
2024-03-05T22:41:45.700Z,80.84
2024-03-05T22:44:12.599Z,80.79
2024-03-05T22:46:40.405Z,80.73
2024-03-05T22:49:07.255Z,80.85
2024-03-05T22:51:34.056Z,80.35
2024-03-05T22:54:01.512Z,80.44
2024-03-05T22:56:30.041Z,80.71
2024-03-05T22:58:56.827Z,80.96
2024-03-05T23:01:24.737Z,81.16
2024-03-05T23:03:51.584Z,81.62
2024-03-05T23:06:43.107Z,81.82
2024-03-05T23:09:10.044Z,82.08
2024-03-05T23:11:36.884Z,82.34
2024-03-05T23:14:30.511Z,83.21
2024-03-05T23:16:57.703Z,84.29
2024-03-05T23:19:24.514Z,85.07
2024-03-05T23:21:52.272Z,85.77
2024-03-05T23:24:19.014Z,85.84
2024-03-05T23:26:46.684Z,86.14
2024-03-05T23:29:15.474Z,86.11
2024-03-05T23:31:42.934Z,86.19
2024-03-05T23:34:12.162Z,86.61
2024-03-05T23:36:40.440Z,86.99
2024-03-05T23:39:07.209Z,86.93
2024-03-05T23:41:36.882Z,87.12
2024-03-05T23:44:05.616Z,87.01
2024-03-05T23:46:32.597Z,87.16
2024-03-05T23:48:59.408Z,86.75
2024-03-05T23:51:28.318Z,86.12
2024-03-05T23:53:58.807Z,86.25
2024-03-05T23:56:25.550Z,86.49
2024-03-05T23:58:55.996Z,86.19
